createdAt,value
2018-08-09T00:00:48.777Z,21.40
2018-08-09T00:02:09.778Z,21.45
2018-08-09T00:02:48.381Z,21.28
2018-08-09T00:03:51.286Z,21.34
2018-08-09T00:04:49.278Z,21.33
2018-08-09T00:05:49.278Z,21.28
2018-08-09T00:06:49.778Z,21.22
2018-08-09T00:07:49.779Z,21.18
2018-08-09T00:08:51.785Z,21.16
2018-08-09T00:09:49.779Z,21.09
2018-08-09T00:11:11.278Z,21.12
2018-08-09T00:11:50.278Z,21.19
2018-08-09T00:12:49.630Z,21.12
2018-08-09T00:13:50.285Z,21.13
2018-08-09T00:14:49.886Z,21.21
2018-08-09T00:16:11.778Z,21.13
2018-08-09T00:16:50.778Z,21.18
2018-08-09T00:17:50.778Z,21.11
2018-08-09T00:18:50.380Z,21.12
2018-08-09T00:19:50.506Z,21.03
2018-08-09T00:20:50.646Z,20.97
2018-08-09T00:21:54.710Z,20.98
2018-08-09T00:23:11.831Z,20.98
2018-08-09T00:23:50.943Z,20.98
2018-08-09T00:24:51.033Z,20.98
2018-08-09T00:25:57.780Z,20.96
2018-08-09T00:26:51.779Z,21.03
2018-08-09T00:27:52.278Z,20.96
2018-08-09T00:28:51.505Z,21.08
2018-08-09T00:29:53.211Z,21.01
2018-08-09T00:30:52.284Z,21.06
2018-08-09T00:31:52.778Z,21.05
2018-08-09T00:33:19.778Z,21.08
2018-08-09T00:35:38.157Z,21.03
2018-08-09T00:36:45.171Z,20.91
2018-08-09T00:37:38.665Z,20.96
2018-08-09T00:38:45.664Z,20.93
2018-08-09T00:39:24.665Z,20.91
2018-08-09T00:40:24.672Z,20.79
2018-08-09T00:41:24.664Z,20.90
2018-08-09T00:42:24.277Z,20.94
2018-08-09T00:43:25.164Z,20.97
2018-08-09T00:44:39.164Z,20.93
2018-08-09T00:45:46.166Z,20.91
2018-08-09T00:47:56.209Z,20.96
2018-08-09T00:48:56.924Z,20.96
2018-08-09T00:49:56.926Z,20.85
2018-08-09T00:51:18.427Z,20.94
2018-08-09T00:52:18.427Z,20.90
2018-08-09T00:52:57.426Z,20.96
2018-08-09T00:53:57.431Z,20.90
2018-08-09T00:54:57.065Z,20.88
2018-08-09T00:55:57.928Z,20.81
2018-08-09T00:56:57.927Z,20.81
2018-08-09T00:57:57.925Z,20.83
2018-08-09T00:59:19.427Z,20.78
2018-08-09T01:00:58.427Z,20.83
2018-08-09T01:01:58.427Z,20.81
2018-08-09T01:03:04.927Z,20.81
2018-08-09T01:03:58.156Z,20.76
2018-08-09T01:04:58.249Z,20.71
2018-08-09T01:05:58.931Z,20.81
2018-08-09T01:06:58.928Z,20.69
2018-08-09T01:07:59.427Z,20.85
2018-08-09T01:08:59.427Z,20.72
2018-08-09T01:09:58.779Z,20.71
2018-08-09T01:10:59.433Z,20.75
2018-08-09T01:11:59.928Z,20.75
2018-08-09T01:12:59.927Z,20.54
2018-08-09T01:13:59.930Z,20.58
2018-08-09T01:14:59.406Z,20.68
2018-08-09T01:16:00.427Z,20.71
2018-08-09T01:17:00.428Z,20.78
2018-08-09T01:18:00.427Z,20.71
2018-08-09T01:19:00.428Z,20.75
2018-08-09T01:20:00.032Z,20.76
2018-08-09T01:21:00.928Z,20.75
2018-08-09T01:22:00.925Z,20.87
2018-08-09T01:23:00.928Z,20.69
2018-08-09T01:24:28.360Z,20.66
2018-08-09T01:25:00.640Z,20.69
2018-08-09T01:26:00.745Z,20.64
2018-08-09T01:27:01.429Z,20.56
2018-08-09T01:28:01.428Z,20.69
2018-08-09T01:29:01.931Z,20.66
2018-08-09T01:30:03.360Z,20.69
2018-08-09T01:31:01.930Z,20.76
2018-08-09T01:32:01.930Z,20.73
2018-08-09T01:33:02.428Z,20.72
2018-08-09T01:35:35.282Z,20.75
2018-08-09T01:36:33.824Z,20.72
2018-08-09T01:37:34.321Z,20.72
2018-08-09T01:38:34.320Z,20.71
2018-08-09T01:39:54.653Z,20.75
2018-08-09T01:40:35.779Z,20.64
2018-08-09T01:41:55.827Z,20.69
2018-08-09T01:42:33.931Z,20.72
2018-08-09T01:43:36.820Z,20.61
2018-08-09T01:44:34.821Z,20.63
2018-08-09T01:45:34.820Z,20.61
2018-08-09T01:46:37.329Z,20.66
2018-08-09T01:47:56.323Z,20.56
2018-08-09T01:48:35.320Z,20.69
2018-08-09T01:49:35.320Z,20.57
2018-08-09T01:50:35.823Z,20.64
2018-08-09T01:51:35.047Z,20.57
2018-08-09T01:52:35.820Z,20.53
2018-08-09T01:53:35.824Z,20.51
2018-08-09T01:54:37.295Z,20.57
2018-08-09T01:55:36.320Z,20.63
2018-08-09T01:56:38.291Z,20.64
2018-08-09T01:57:35.770Z,20.57
2018-08-09T01:58:50.830Z,20.64
2018-08-09T01:59:35.932Z,20.61
2018-08-09T02:00:59.821Z,20.64
2018-08-09T02:01:36.830Z,20.60
2018-08-09T02:02:36.834Z,20.53
2018-08-09T02:03:37.320Z,20.56
2018-08-09T02:04:51.433Z,20.54
2018-08-09T02:05:37.322Z,20.42
2018-08-09T02:06:37.329Z,20.42
2018-08-09T02:07:37.824Z,20.48
2018-08-09T02:08:37.841Z,20.54
2018-08-09T02:09:37.821Z,20.53
2018-08-09T02:10:44.820Z,20.53
2018-08-09T02:11:38.330Z,20.46
2018-08-09T02:12:38.321Z,20.46
2018-08-09T02:13:38.322Z,20.33
2018-08-09T02:14:38.325Z,20.40
2018-08-09T02:15:59.821Z,20.44
2018-08-09T02:16:38.821Z,20.34
2018-08-09T02:17:38.172Z,20.35
2018-08-09T02:18:38.825Z,20.25
2018-08-09T02:19:59.401Z,20.38
2018-08-09T02:21:02.323Z,20.30
2018-08-09T02:21:39.324Z,20.33
2018-08-09T02:22:39.333Z,20.33
2018-08-09T02:23:41.327Z,20.31
2018-08-09T02:24:39.838Z,20.27
2018-08-09T02:25:39.822Z,20.23
2018-08-09T02:26:39.827Z,20.13
2018-08-09T02:27:39.823Z,20.07
2018-08-09T02:28:40.321Z,20.10
2018-08-09T02:30:00.523Z,20.08
2018-08-09T02:30:40.325Z,20.07
2018-08-09T02:31:41.257Z,20.02
2018-08-09T02:32:41.253Z,20.07
2018-08-09T02:33:40.410Z,20.05
2018-08-09T02:34:54.821Z,20.08
2018-08-09T02:36:01.822Z,20.12
2018-08-09T02:38:12.240Z,20.27
2018-08-09T02:39:11.583Z,20.30
2018-08-09T02:40:12.247Z,20.19
2018-08-09T02:41:12.744Z,20.22
2018-08-09T02:42:11.992Z,20.23
2018-08-09T02:43:12.751Z,20.13
2018-08-09T02:44:33.752Z,20.12
2018-08-09T02:45:14.243Z,20.10
2018-08-09T02:46:13.246Z,20.07
2018-08-09T02:47:12.622Z,20.07
2018-08-09T02:48:13.243Z,20.10
2018-08-09T02:49:13.752Z,20.00
2018-08-09T02:50:13.746Z,20.08
2018-08-09T02:51:13.755Z,20.10
2018-08-09T02:53:45.397Z,20.12
2018-08-09T02:54:45.403Z,20.12
2018-08-09T02:56:46.902Z,20.10
2018-08-09T02:59:37.560Z,19.98
2018-08-09T03:00:17.314Z,20.00
2018-08-09T03:01:17.307Z,19.94
2018-08-09T03:03:49.057Z,19.87
2018-08-09T03:04:51.072Z,19.94
2018-08-09T03:06:11.497Z,20.01
2018-08-09T03:06:49.564Z,19.95
2018-08-09T03:07:49.590Z,20.02
2018-08-09T03:08:49.564Z,20.05
2018-08-09T03:09:49.188Z,20.00
2018-08-09T03:10:50.065Z,20.02
2018-08-09T03:11:50.061Z,20.00
2018-08-09T03:12:50.068Z,20.00
2018-08-09T03:13:50.564Z,20.00
2018-08-09T03:14:50.582Z,20.04
2018-08-09T03:15:50.567Z,20.00
2018-08-09T03:16:50.570Z,20.00
2018-08-09T03:17:51.093Z,20.01
2018-08-09T03:18:51.065Z,19.98
2018-08-09T03:19:50.426Z,19.90
2018-08-09T03:20:51.064Z,19.92
2018-08-09T03:22:12.564Z,19.89
2018-08-09T03:22:51.568Z,19.83
2018-08-09T03:23:51.565Z,19.92
2018-08-09T03:24:52.496Z,19.86
2018-08-09T03:27:23.353Z,19.79
2018-08-09T03:28:50.351Z,19.71
2018-08-09T03:29:23.343Z,19.71
2018-08-09T03:30:43.926Z,19.58
2018-08-09T03:31:23.067Z,19.60
2018-08-09T03:32:25.276Z,19.53
2018-08-09T03:33:23.843Z,19.65
2018-08-09T03:34:47.343Z,19.53
2018-08-09T03:36:55.730Z,19.55
2018-08-09T03:37:55.738Z,19.50
2018-08-09T03:38:55.745Z,19.52
2018-08-09T03:39:56.237Z,19.53
2018-08-09T03:40:56.237Z,19.52
2018-08-09T03:41:56.237Z,19.50
2018-08-09T03:42:56.237Z,19.50
2018-08-09T03:43:55.838Z,19.55
2018-08-09T03:44:56.744Z,19.50
2018-08-09T03:45:56.738Z,19.49
2018-08-09T03:46:56.737Z,19.57
2018-08-09T03:47:57.246Z,19.57
2018-08-09T03:48:57.237Z,19.50
2018-08-09T03:49:59.241Z,19.55
2018-08-09T03:50:57.238Z,19.50
2018-08-09T03:52:18.737Z,19.50
2018-08-09T03:52:57.669Z,19.50
2018-08-09T03:53:57.747Z,19.49
2018-08-09T03:54:58.237Z,19.55
2018-08-09T03:56:18.324Z,19.53
2018-08-09T03:56:58.237Z,19.62
2018-08-09T03:57:58.237Z,19.58
2018-08-09T03:58:57.715Z,19.61
2018-08-09T03:59:58.759Z,19.60
2018-08-09T04:00:58.005Z,19.64
2018-08-09T04:01:58.100Z,19.68
2018-08-09T04:02:58.739Z,19.65
2018-08-09T04:03:58.341Z,19.68
2018-08-09T04:04:58.442Z,19.76
2018-08-09T04:05:59.238Z,19.61
2018-08-09T04:06:59.238Z,19.64
2018-08-09T04:09:30.996Z,19.62
2018-08-09T04:10:30.348Z,19.60
2018-08-09T04:11:31.003Z,19.58
2018-08-09T04:14:04.760Z,19.55
2018-08-09T04:15:02.771Z,19.67
2018-08-09T04:16:02.771Z,19.58
2018-08-09T04:17:03.270Z,19.52
2018-08-09T04:18:03.269Z,19.64
2018-08-09T04:19:02.623Z,19.58
2018-08-09T04:20:03.270Z,19.52
2018-08-09T04:22:38.467Z,19.46
2018-08-09T04:23:35.036Z,19.49
2018-08-09T04:24:35.036Z,19.52
2018-08-09T04:25:35.539Z,19.52
2018-08-09T04:26:55.734Z,19.28
2018-08-09T04:27:35.535Z,19.43
2018-08-09T04:28:35.550Z,19.45
2018-08-09T04:29:35.537Z,19.38
2018-08-09T04:30:36.045Z,19.47
2018-08-09T04:31:36.097Z,19.49
2018-08-09T04:32:35.322Z,19.49
2018-08-09T04:33:36.035Z,19.53
2018-08-09T04:34:36.036Z,19.55
2018-08-09T04:35:36.536Z,19.52
2018-08-09T04:36:36.534Z,19.55
2018-08-09T04:37:35.892Z,19.53
2018-08-09T04:38:36.536Z,19.57
2018-08-09T04:39:51.035Z,19.57
2018-08-09T04:40:37.042Z,19.68
2018-08-09T04:41:37.036Z,19.62
2018-08-09T04:42:36.512Z,19.64
2018-08-09T04:43:37.538Z,19.64
2018-08-09T04:44:37.537Z,19.50
2018-08-09T04:45:37.537Z,19.60
2018-08-09T04:46:37.534Z,19.57
2018-08-09T04:47:37.132Z,19.62
2018-08-09T04:48:38.036Z,19.64
2018-08-09T04:49:37.386Z,19.70
2018-08-09T04:50:38.036Z,19.68
2018-08-09T04:51:38.535Z,19.72
2018-08-09T04:52:40.011Z,19.78
2018-08-09T04:53:38.537Z,19.80
2018-08-09T04:54:38.536Z,19.78
2018-08-09T04:57:33.293Z,19.80
2018-08-09T04:58:10.351Z,19.92
2018-08-09T04:59:10.303Z,19.87
2018-08-09T05:00:10.803Z,19.98
2018-08-09T05:02:44.181Z,19.87
2018-08-09T05:03:42.188Z,19.98
2018-08-09T05:04:43.640Z,20.01
2018-08-09T05:05:42.690Z,20.12
2018-08-09T05:06:41.943Z,20.08
2018-08-09T05:07:42.698Z,20.05
2018-08-09T05:08:42.691Z,20.12
2018-08-09T05:09:43.188Z,20.20
2018-08-09T05:11:10.188Z,20.23
2018-08-09T05:11:43.188Z,20.27
2018-08-09T05:12:43.191Z,20.37
2018-08-09T05:13:57.690Z,20.40
2018-08-09T05:14:45.688Z,20.51
2018-08-09T05:15:43.688Z,20.51
2018-08-09T05:16:49.696Z,20.58
2018-08-09T05:17:58.197Z,20.58
2018-08-09T05:19:11.189Z,20.57
2018-08-09T05:19:44.188Z,20.61
2018-08-09T05:20:43.680Z,20.57
2018-08-09T05:21:46.689Z,20.69
2018-08-09T05:22:46.127Z,20.68
2018-08-09T05:23:43.988Z,20.68
2018-08-09T05:24:46.688Z,20.66
2018-08-09T05:25:58.726Z,20.69
2018-08-09T05:26:44.334Z,20.64
2018-08-09T05:27:45.195Z,20.79
2018-08-09T05:28:45.189Z,20.97
2018-08-09T05:29:45.189Z,21.01
2018-08-09T05:32:43.960Z,21.19
2018-08-09T05:33:16.957Z,21.33
2018-08-09T05:34:17.005Z,21.42
2018-08-09T05:35:38.463Z,21.51
2018-08-09T05:36:17.457Z,21.61
2018-08-09T05:37:16.808Z,21.67
2018-08-09T05:38:17.457Z,21.70
2018-08-09T05:39:20.913Z,21.82
2018-08-09T05:40:17.963Z,21.83
2018-08-09T05:41:17.956Z,21.82
2018-08-09T05:42:17.961Z,21.86
2018-08-09T05:43:41.457Z,22.02
2018-08-09T05:44:18.461Z,22.02
2018-08-09T05:45:17.822Z,22.11
2018-08-09T05:46:17.911Z,22.19
2018-08-09T05:47:18.957Z,22.29
2018-08-09T05:48:20.957Z,22.36
2018-08-09T05:49:18.956Z,22.36
2018-08-09T05:50:18.957Z,22.35
2018-08-09T05:51:19.462Z,22.51
2018-08-09T05:52:18.685Z,22.52
2018-08-09T05:53:19.515Z,22.48
2018-08-09T05:54:18.947Z,22.63
2018-08-09T05:55:19.971Z,22.69
2018-08-09T05:56:19.957Z,22.70
2018-08-09T05:57:19.957Z,22.72
2018-08-09T05:58:19.959Z,22.79
2018-08-09T06:02:23.460Z,23.04
2018-08-09T06:03:22.812Z,23.19
2018-08-09T06:04:23.468Z,23.44
2018-08-09T06:06:46.401Z,23.64
2018-08-09T06:07:23.269Z,23.77
2018-08-09T06:08:23.967Z,23.67
2018-08-09T06:09:23.968Z,23.77
2018-08-09T06:10:25.921Z,24.00
2018-08-09T06:11:23.663Z,24.24
2018-08-09T06:12:23.784Z,24.37
2018-08-09T06:13:24.475Z,24.48
2018-08-09T06:14:24.468Z,24.52
2018-08-09T06:15:24.967Z,24.68
2018-08-09T06:16:45.970Z,24.70
2018-08-09T06:17:24.969Z,24.83
2018-08-09T06:18:24.971Z,24.98
2018-08-09T06:19:25.484Z,24.89
2018-08-09T06:20:24.696Z,24.94
2018-08-09T06:21:25.474Z,24.79
2018-08-09T06:22:52.966Z,24.63
2018-08-09T06:23:25.968Z,24.63
2018-08-09T06:24:27.968Z,24.46
2018-08-09T06:25:25.968Z,24.37
2018-08-09T06:26:28.468Z,24.30
2018-08-09T06:27:28.469Z,24.04
2018-08-09T06:28:48.533Z,24.18
2018-08-09T06:29:25.821Z,24.21
2018-08-09T06:30:26.482Z,24.24
2018-08-09T06:31:40.982Z,24.19
2018-08-09T06:32:30.443Z,24.21
2018-08-09T06:33:26.972Z,24.24
2018-08-09T06:34:26.969Z,24.24
2018-08-09T06:36:58.731Z,24.23
2018-08-09T06:37:58.740Z,24.18
2018-08-09T06:38:58.740Z,24.09
2018-08-09T06:40:01.243Z,23.99
2018-08-09T06:41:02.672Z,24.06
2018-08-09T06:41:59.240Z,24.18
2018-08-09T06:42:59.247Z,24.09
2018-08-09T06:43:59.740Z,24.05
2018-08-09T06:44:58.986Z,23.97
2018-08-09T06:45:59.090Z,24.06
2018-08-09T06:47:20.756Z,24.18
2018-08-09T06:48:00.240Z,24.27
2018-08-09T06:49:00.240Z,24.19
2018-08-09T06:49:59.614Z,24.23
2018-08-09T06:51:00.244Z,24.19
2018-08-09T06:52:00.746Z,24.37
2018-08-09T06:53:00.743Z,24.41
2018-08-09T06:54:00.741Z,24.34
2018-08-09T06:55:00.231Z,24.39
2018-08-09T06:56:01.254Z,24.36
2018-08-09T06:57:01.239Z,24.48
2018-08-09T06:58:01.240Z,24.48
2018-08-09T06:59:00.720Z,24.60
2018-08-09T07:00:07.743Z,24.75
2018-08-09T07:01:28.744Z,24.68
2018-08-09T07:02:01.750Z,24.77
2018-08-09T07:03:01.746Z,24.63
2018-08-09T07:05:40.020Z,24.77
2018-08-09T07:06:54.376Z,24.77
2018-08-09T07:07:36.010Z,24.80
2018-08-09T07:08:34.515Z,24.92
2018-08-09T07:09:34.510Z,25.09
2018-08-09T07:10:55.510Z,25.04
2018-08-09T07:11:34.510Z,25.26
2018-08-09T07:12:34.132Z,25.26
2018-08-09T07:13:34.243Z,25.60
2018-08-09T07:14:35.007Z,25.74
2018-08-09T07:15:55.472Z,25.98
2018-08-09T07:17:02.514Z,26.20
2018-08-09T07:19:06.910Z,26.53
2018-08-09T07:20:30.017Z,26.50
2018-08-09T07:21:27.919Z,26.64
2018-08-09T07:22:06.523Z,26.75
2018-08-09T07:23:07.422Z,26.86
2018-08-09T07:24:09.418Z,26.96
2018-08-09T07:25:07.418Z,26.93
2018-08-09T07:26:07.918Z,27.01
2018-08-09T07:27:07.926Z,26.83
2018-08-09T07:28:21.918Z,26.84
2018-08-09T07:29:07.420Z,26.87
2018-08-09T07:30:08.419Z,26.91
2018-08-09T07:31:07.683Z,26.97
2018-08-09T07:32:08.419Z,27.06
2018-08-09T07:33:07.901Z,27.20
2018-08-09T07:35:40.188Z,27.34
2018-08-09T07:36:40.235Z,27.23
2018-08-09T07:37:40.198Z,27.20
2018-08-09T07:38:40.694Z,27.31
2018-08-09T07:39:42.737Z,27.27
2018-08-09T07:40:40.694Z,27.24
2018-08-09T07:41:40.694Z,27.33
2018-08-09T07:42:41.192Z,27.39
2018-08-09T07:43:41.192Z,27.50
2018-08-09T07:44:41.208Z,27.62
2018-08-09T07:45:43.726Z,27.65
2018-08-09T07:46:41.703Z,27.87
2018-08-09T07:47:40.916Z,28.06
2018-08-09T07:48:41.703Z,28.20
2018-08-09T07:49:41.754Z,28.17
2018-08-09T07:50:44.193Z,28.28
2018-08-09T07:53:19.515Z,28.02
2018-08-09T07:54:13.546Z,27.93
2018-08-09T07:55:13.525Z,27.96
2018-08-09T07:57:45.303Z,28.06
2018-08-09T07:58:44.657Z,28.18
2018-08-09T07:59:46.309Z,28.38
2018-08-09T08:03:47.920Z,28.76
2018-08-09T08:04:49.018Z,28.87
2018-08-09T08:05:49.070Z,28.85
2018-08-09T08:06:49.952Z,28.88
2018-08-09T08:08:03.037Z,28.89
2018-08-09T08:08:49.014Z,28.88
2018-08-09T08:09:49.549Z,28.87
2018-08-09T08:10:48.744Z,28.95
2018-08-09T08:11:49.519Z,28.89
2018-08-09T08:12:49.517Z,29.02
2018-08-09T08:13:49.122Z,29.25
2018-08-09T08:14:49.236Z,29.21
2018-08-09T08:16:00.450Z,29.21
2018-08-09T08:17:10.480Z,29.23
2018-08-09T08:17:56.516Z,29.21
2018-08-09T08:18:50.520Z,29.10
2018-08-09T08:19:49.873Z,29.05
2018-08-09T08:20:50.574Z,28.97
2018-08-09T08:22:11.134Z,28.88
2018-08-09T08:22:50.235Z,28.83
2018-08-09T08:23:50.334Z,28.89
2018-08-09T08:24:50.441Z,28.97
2018-08-09T08:26:13.517Z,29.11
2018-08-09T08:26:50.702Z,29.11
2018-08-09T08:27:51.523Z,29.11
2018-08-09T08:28:57.526Z,28.82
2018-08-09T08:29:51.545Z,28.79
2018-08-09T08:30:51.118Z,28.73
2018-08-09T08:31:54.019Z,28.79
2018-08-09T08:32:52.020Z,28.91
2018-08-09T08:33:58.519Z,28.95
2018-08-09T08:34:51.620Z,29.05
2018-08-09T08:36:13.519Z,29.15
2018-08-09T08:38:25.490Z,29.30
2018-08-09T08:39:24.044Z,29.41
2018-08-09T08:40:24.538Z,29.48
2018-08-09T08:41:51.576Z,29.58
2018-08-09T08:42:23.897Z,29.63
2018-08-09T08:43:45.539Z,29.71
2018-08-09T08:44:24.164Z,29.69
2018-08-09T08:45:31.039Z,29.58
2018-08-09T08:46:24.397Z,29.69
2018-08-09T08:47:25.107Z,29.69
2018-08-09T08:48:45.631Z,29.71
2018-08-09T08:49:52.555Z,29.73
2018-08-09T08:50:25.629Z,29.79
2018-08-09T08:51:25.544Z,29.82
2018-08-09T08:52:32.038Z,29.82
2018-08-09T08:53:26.039Z,29.74
2018-08-09T08:54:26.038Z,29.78
2018-08-09T08:55:26.041Z,29.82
2018-08-09T08:57:57.114Z,29.73
2018-08-09T08:58:57.845Z,29.79
2018-08-09T08:59:58.828Z,29.78
2018-08-09T09:01:04.399Z,29.74
2018-08-09T09:02:00.261Z,29.76
2018-08-09T09:02:59.762Z,29.73
2018-08-09T09:03:57.856Z,29.73
2018-08-09T09:04:57.945Z,29.84
2018-08-09T09:05:58.830Z,29.78
2018-08-09T09:06:58.266Z,29.81
2018-08-09T09:07:58.834Z,29.84
2018-08-09T09:09:05.323Z,29.91
2018-08-09T09:09:58.616Z,29.91
2018-08-09T09:10:59.331Z,30.04
2018-08-09T09:11:59.330Z,30.15
2018-08-09T09:12:59.826Z,30.19
2018-08-09T09:13:59.830Z,30.19
2018-08-09T09:14:59.213Z,30.23
2018-08-09T09:15:59.832Z,30.26
2018-08-09T09:17:20.423Z,30.19
2018-08-09T09:18:00.331Z,30.18
2018-08-09T09:19:00.331Z,30.08
2018-08-09T09:19:59.812Z,30.19
2018-08-09T09:22:32.586Z,30.29
2018-08-09T09:23:32.594Z,30.26
2018-08-09T09:24:32.594Z,30.34
2018-08-09T09:27:04.420Z,30.38
2018-08-09T09:28:05.372Z,30.26
2018-08-09T09:29:10.881Z,30.26
2018-08-09T09:31:35.412Z,30.57
2018-08-09T09:32:36.159Z,30.61
2018-08-09T09:33:36.151Z,30.67
2018-08-09T09:34:36.654Z,30.64
2018-08-09T09:35:36.649Z,30.60
2018-08-09T09:36:36.651Z,30.72
2018-08-09T09:37:36.133Z,30.66
2018-08-09T09:38:36.277Z,30.64
2018-08-09T09:39:37.151Z,30.79
2018-08-09T09:40:36.513Z,30.82
2018-08-09T09:41:37.151Z,30.85
2018-08-09T09:42:36.762Z,31.00
2018-08-09T09:43:51.651Z,31.00
2018-08-09T09:44:37.654Z,31.18
2018-08-09T09:45:37.157Z,31.12
2018-08-09T09:48:09.428Z,31.42
2018-08-09T09:49:09.547Z,31.45
2018-08-09T09:50:08.851Z,31.37
2018-08-09T09:51:30.939Z,31.35
2018-08-09T09:52:09.936Z,31.47
2018-08-09T09:53:30.935Z,31.60
2018-08-09T09:54:09.935Z,31.68
2018-08-09T09:55:09.942Z,31.84
2018-08-09T09:56:10.437Z,31.76
2018-08-09T09:57:10.440Z,31.88
2018-08-09T09:58:09.795Z,31.97
2018-08-09T09:59:10.444Z,31.94
2018-08-09T10:00:16.942Z,32.10
2018-08-09T10:01:10.935Z,32.22
2018-08-09T10:02:11.939Z,32.27
2018-08-09T10:03:10.956Z,32.41
2018-08-09T10:04:10.551Z,32.46
2018-08-09T10:05:11.438Z,32.46
2018-08-09T10:06:11.440Z,32.43
2018-08-09T10:07:10.947Z,32.46
2018-08-09T10:08:17.937Z,32.44
2018-08-09T10:09:11.939Z,32.35
2018-08-09T10:10:11.938Z,32.35
2018-08-09T10:11:11.938Z,32.34
2018-08-09T10:12:12.437Z,32.59
2018-08-09T10:14:44.369Z,32.65
2018-08-09T10:17:17.865Z,32.84
2018-08-09T10:18:15.876Z,32.88
2018-08-09T10:19:15.873Z,32.95
2018-08-09T10:21:50.681Z,33.00
2018-08-09T10:22:47.685Z,33.06
2018-08-09T10:23:47.296Z,33.20
2018-08-09T10:24:48.185Z,33.28
2018-08-09T10:25:49.116Z,33.37
2018-08-09T10:27:09.184Z,33.45
2018-08-09T10:28:09.684Z,33.44
2018-08-09T10:28:47.932Z,33.34
2018-08-09T10:29:48.739Z,33.38
2018-08-09T10:31:09.175Z,33.37
2018-08-09T10:32:09.276Z,33.50
2018-08-09T10:32:51.118Z,33.68
2018-08-09T10:33:51.186Z,33.72
2018-08-09T10:34:50.117Z,33.75
2018-08-09T10:36:10.691Z,33.71
2018-08-09T10:37:11.679Z,33.71
2018-08-09T10:37:49.037Z,33.66
2018-08-09T10:38:55.704Z,33.92
2018-08-09T10:39:57.183Z,33.93
2018-08-09T10:40:50.620Z,33.82
2018-08-09T10:42:11.185Z,33.99
2018-08-09T10:43:11.185Z,34.09
2018-08-09T10:43:50.685Z,34.05
2018-08-09T10:44:49.966Z,34.18
2018-08-09T10:45:50.034Z,34.27
2018-08-09T10:46:51.683Z,34.33
2018-08-09T10:47:51.183Z,34.31
2018-08-09T10:48:50.431Z,34.38
2018-08-09T10:49:50.539Z,34.28
2018-08-09T10:51:12.193Z,34.03
2018-08-09T10:51:53.685Z,33.92
2018-08-09T10:52:51.690Z,33.87
2018-08-09T10:53:51.082Z,33.72
2018-08-09T10:54:51.194Z,33.75
2018-08-09T10:57:44.459Z,33.92
2018-08-09T10:58:50.469Z,34.01
2018-08-09T10:59:22.972Z,34.00
2018-08-09T11:00:44.069Z,33.94
2018-08-09T11:01:37.978Z,34.11
2018-08-09T11:02:44.970Z,34.15
2018-08-09T11:03:44.971Z,33.81
2018-08-09T11:04:45.467Z,33.86
2018-08-09T11:05:44.689Z,33.75
2018-08-09T11:07:55.956Z,33.65
2018-08-09T11:08:55.965Z,33.77
2018-08-09T11:09:58.467Z,33.90
2018-08-09T11:12:48.753Z,34.06
2018-08-09T11:13:27.769Z,34.16
2018-08-09T11:14:49.254Z,34.21
2018-08-09T11:15:28.255Z,34.11
2018-08-09T11:16:27.631Z,34.14
2018-08-09T11:17:30.257Z,34.12
2018-08-09T11:18:42.757Z,34.14
2018-08-09T11:19:34.755Z,34.15
2018-08-09T11:20:55.755Z,34.31
2018-08-09T11:21:28.755Z,34.15
2018-08-09T11:22:35.255Z,34.06
2018-08-09T11:23:50.255Z,34.28
2018-08-09T11:24:29.255Z,34.37
2018-08-09T11:25:28.731Z,34.53
2018-08-09T11:26:29.779Z,34.55
2018-08-09T11:27:29.011Z,34.48
2018-08-09T11:28:29.762Z,34.48
2018-08-09T11:29:29.755Z,34.37
2018-08-09T11:32:23.034Z,34.33
2018-08-09T11:33:02.043Z,34.33
2018-08-09T11:34:03.049Z,34.31
2018-08-09T11:35:01.650Z,34.19
2018-08-09T11:36:22.751Z,34.38
2018-08-09T11:37:04.972Z,34.49
2018-08-09T11:38:24.999Z,34.64
2018-08-09T11:39:04.047Z,34.87
2018-08-09T11:40:18.038Z,34.94
2018-08-09T11:41:02.412Z,35.28
2018-08-09T11:42:02.526Z,35.77
2018-08-09T11:44:48.820Z,36.50
2018-08-09T11:45:35.755Z,36.68
2018-08-09T11:46:36.254Z,36.74
2018-08-09T11:47:56.323Z,36.72
2018-08-09T11:48:37.323Z,37.06
2018-08-09T11:49:49.329Z,37.43
2018-08-09T11:50:56.325Z,37.90
2018-08-09T11:51:37.255Z,37.97
2018-08-09T11:52:35.079Z,38.02
2018-08-09T11:53:35.826Z,37.66
2018-08-09T11:54:50.324Z,37.46
2018-08-09T11:56:03.343Z,37.25
2018-08-09T11:56:35.629Z,36.96
2018-08-09T11:57:36.326Z,36.83
2018-08-09T11:58:36.336Z,36.77
2018-08-09T11:59:50.833Z,36.78
2018-08-09T12:00:36.081Z,36.40
2018-08-09T12:01:36.901Z,35.13
2018-08-09T12:02:36.337Z,35.54
2018-08-09T12:03:43.328Z,36.33
2018-08-09T12:04:51.322Z,36.91
2018-08-09T12:05:37.323Z,37.45
2018-08-09T12:06:37.324Z,38.09
2018-08-09T12:07:37.822Z,38.28
2018-08-09T12:08:37.073Z,38.31
2018-08-09T12:09:37.835Z,37.90
2018-08-09T12:10:53.286Z,37.87
2018-08-09T12:11:59.321Z,38.18
2018-08-09T12:13:05.323Z,38.10
2018-08-09T12:13:59.330Z,37.77
2018-08-09T12:14:38.323Z,37.35
2018-08-09T12:15:40.829Z,37.33
2018-08-09T12:17:39.757Z,37.72
2018-08-09T12:18:40.802Z,38.36
2018-08-09T12:19:53.332Z,38.95
2018-08-09T12:20:59.610Z,39.34
2018-08-09T12:22:00.324Z,40.00
2018-08-09T12:22:39.324Z,40.31
2018-08-09T12:23:41.832Z,40.29
2018-08-09T12:24:39.067Z,40.44
2018-08-09T12:26:00.823Z,40.63
2018-08-09T12:26:39.824Z,40.66
2018-08-09T12:27:40.321Z,40.94
2018-08-09T12:29:01.324Z,40.85
2018-08-09T12:29:40.296Z,41.10
2018-08-09T12:30:40.323Z,41.38
2018-08-09T12:31:39.936Z,41.63
2018-08-09T12:32:42.289Z,41.88
2018-08-09T12:33:40.838Z,41.60
2018-08-09T12:34:40.332Z,40.88
2018-08-09T12:35:55.324Z,40.57
2018-08-09T12:37:02.321Z,39.92
2018-08-09T12:37:41.322Z,39.29
2018-08-09T12:38:41.830Z,38.84
2018-08-09T12:40:02.867Z,39.13
2018-08-09T12:40:41.821Z,39.68
2018-08-09T12:41:42.819Z,40.09
2018-08-09T12:42:41.822Z,40.66
2018-08-09T12:43:41.453Z,41.07
2018-08-09T12:44:41.597Z,41.50
2018-08-09T12:45:42.322Z,41.90
2018-08-09T12:46:42.321Z,42.17
2018-08-09T12:47:42.825Z,42.29
2018-08-09T12:48:42.823Z,42.83
2018-08-09T12:50:03.829Z,42.75
2018-08-09T12:50:42.840Z,41.89
2018-08-09T12:51:43.335Z,41.10
2018-08-09T12:52:43.329Z,40.28
2018-08-09T12:53:43.319Z,39.48
2018-08-09T12:54:42.844Z,38.84
2018-08-09T12:55:43.819Z,38.40
2018-08-09T12:57:04.819Z,38.03
2018-08-09T12:57:43.815Z,38.18
2018-08-09T12:58:43.819Z,37.59
2018-08-09T12:59:44.319Z,37.12
2018-08-09T13:00:43.588Z,36.89
2018-08-09T13:01:46.251Z,37.04
2018-08-09T13:02:58.821Z,37.05
2018-08-09T13:03:44.822Z,37.73
2018-08-09T13:04:44.818Z,38.24
2018-08-09T13:05:44.859Z,38.75
2018-08-09T13:06:45.319Z,39.02
2018-08-09T13:07:44.436Z,38.36
2018-08-09T13:08:47.320Z,38.87
2018-08-09T13:09:45.320Z,39.39
2018-08-09T13:10:45.324Z,39.87
2018-08-09T13:12:06.819Z,40.38
2018-08-09T13:13:06.818Z,40.72
2018-08-09T13:14:06.825Z,40.95
2018-08-09T13:14:51.824Z,40.56
2018-08-09T13:16:06.429Z,40.57
2018-08-09T13:18:42.525Z,40.91
2018-08-09T13:19:19.527Z,40.22
2018-08-09T13:20:40.527Z,39.84
2018-08-09T13:21:19.529Z,39.32
2018-08-09T13:22:19.172Z,38.77
2018-08-09T13:23:20.084Z,38.07
2018-08-09T13:24:19.425Z,37.73
2018-08-09T13:25:19.546Z,37.42
2018-08-09T13:26:43.534Z,37.46
2018-08-09T13:27:20.535Z,37.72
2018-08-09T13:28:41.537Z,38.15
2018-08-09T13:29:34.528Z,38.09
2018-08-09T13:30:21.180Z,38.07
2018-08-09T13:31:20.224Z,37.65
2018-08-09T13:32:21.026Z,37.33
2018-08-09T13:33:27.032Z,37.16
2018-08-09T13:34:41.655Z,36.97
2018-08-09T13:36:52.942Z,38.10
2018-08-09T13:37:52.948Z,37.93
2018-08-09T13:38:52.979Z,37.58
2018-08-09T13:39:52.615Z,37.11
2018-08-09T13:42:24.210Z,37.47
2018-08-09T13:43:24.926Z,37.95
2018-08-09T13:44:24.914Z,38.40
2018-08-09T13:45:45.552Z,38.87
2018-08-09T13:46:52.424Z,39.14
2018-08-09T13:47:46.422Z,39.28
2018-08-09T13:48:24.899Z,38.75
2018-08-09T13:49:25.921Z,38.18
2018-08-09T13:50:25.923Z,38.31
2018-08-09T13:51:25.937Z,38.06
2018-08-09T13:52:25.916Z,37.81
2018-08-09T13:53:47.418Z,37.69
2018-08-09T13:54:26.415Z,37.63
2018-08-09T13:55:26.423Z,37.38
2018-08-09T13:56:26.419Z,37.16
2018-08-09T13:57:26.915Z,36.86
2018-08-09T13:58:32.986Z,36.60
2018-08-09T13:59:26.916Z,36.35
2018-08-09T14:00:48.355Z,36.15
2018-08-09T14:01:33.417Z,36.13
2018-08-09T14:02:27.430Z,35.93